Hlavní strana
METAR-TAF:

METAR-TAF

Letiště :

Ingolstadt, Německo

zeměpisná šířka: 48-43N, zeměpisná délka: 011-32E, výška: 367 m

Aktuální stav počasí

Zpráva byla vytvořena před 1 hodinou a 0 minutami, v 09:20 UTC
Západní vítr 6 kt
Teplota 22°C
Vlhkost vzduchu 60%
Tlak 1021 hPa
Viditelnost: 6000 m

METAR: ETSI 180920Z AUTO 28006KT 6000 // ////// 22/14 Q1021 ///

Čas: 12:20 (10:20 UTC)

Předpověď počasí

Zpráva byla vytvořena před 23 hodinami a 56 minutami, v 10:24 UTC
Předpověď platná od 17 v 11 UTC do 17 v 20 UTC
vítr z různých směrů 3 kt
Viditelnost 10 km a více
Skoro jasno ve výšce 7000 ft
Polojasno ve výšce 25000 ft
Pravděpodobnost 30%
od 17 v 19 UTC do 17 v 20 UTC
Severozápadní vítr 15 kt s nárazy do 25 kt
Viditelnost: 1120 m
Skoro jasno ve výšce 4000 ft, Cumulonimbus.
Oblačno až skoro zataženo ve výšce 11000 ft
bouřka, slabý déšť

TAF: ETSI 171024Z 1711/1720 VRB03KT 9999 NSW FEW070 SCT250 PROB30 1719/1720 31015G25KT 9999 -TSRA FEW040CB BKN110 CANCEL 1120

Stav a předpovědi počasí z více než 4 000 letišť (zprávy METAR a TAF).

Červené a žluté tečky na mapě představují dostupné meteorologické stanice.

Když kurzor umístíte na tečku, zobrazí se název stanice.

Pak kliknutím zobrazíte stav a předpověď počasí.

Chcete-li změnit mapu, kliknutím na zelené tlačítko se znaménkem +mapu přiblížíte, kliknutím na zelené tlačítko se znaménkem – mapu oddálíte a kliknutím na zelené šipky přejdete na sousední mapy.


METAR-TAF: